Manley Hot Springs, Alaska
Current Conditions -  °F | °C
As of 6:52 PM on Thursday 27 Nov 2014 (Local Time) from PATA Reporting Station
Clear Clear  
Wind Chill: -14°   Ceiling: Unl
Heat Index:   Visibility: 10mi
Dew Point: -8°   Wind: 8mph
Humidity: 69%   Direction: 80°E
Pressure: 30.29"   Gusts: NA
Location:  65°N, 150.64°W
Report Text: PATA 280352Z 08007KT 10SM CLR M18/M22 A3029 RMK AO2 SLP264 T11781222
Loading
Personal Weather Stations






























Interactive Weather Map New forecast layout! Learn more

10-Day Weather Forecast

Advertisements
Track Severe Weather on mobile